METAR stanice u blizini

 

LYBE - Beograd / Surčin, Srbija
Ažurirano: 05/08/2021 11:00
Partly Cloudy
Partly Cloudy
 Pravac vetra SZ
Vetar: SZ 31 km/h
Temperatura: 26°C
Tačka rose: 16°C
Vlažnost: 54%
Pritisak: 1006 hPa
Oblaci: Partly Cloudy
Vidljivost: 10 km
Cloud details: Partly Cloudy 914 m
2021/08/05 09:00 LYBE 050900Z 31017KT 9999 SCT030TCU 26/16 Q1006 TEMPO 5000 TSRA SCT030CB
LYBT - Beograd / Batajnica, Srbija
Ažurirano: 05/08/2021 11:00
Partly Cloudy
Partly Cloudy
 Pravac vetra Z
Vetar: Z 24 km/h, Maks.: 44 km/h
Temperatura: 25°C
Tačka rose: 15°C
Vlažnost: 54%
Pritisak: 1007 hPa
Oblaci: Partly Cloudy
Vidljivost: 10 km
Cloud details: Partly Cloudy 914 m
Partly Cloudy 1219 m
2021/08/05 09:00 LYBT 050900Z 27013G24KT 9999 SCT030TCU SCT040 25/15 Q1007 TEMPO 5000 TSRA SCT030CB SCT040
LYVR - Vršac, Srbija
Ažurirano: 05/08/2021 11:00
Partly Cloudy
Partly Cloudy
 Pravac vetra JI
Vetar: JI 44 km/h, Maks.: 69 km/h
Temperatura: 31°C
Tačka rose: 11°C
Vlažnost: 29%
Pritisak: 1003 hPa
Oblaci: Partly Cloudy
Vidljivost: 10 km
Cloud details: Few Clouds 1219 m
Partly Cloudy 1402 m
2021/08/05 09:00 LYVR 050900Z 13024G37KT 9999 FEW040 SCT046 31/11 Q1003 NOSIG
 
LYKV - Lađevci, Srbija
Ažurirano: 05/08/2021 11:00
Vedro
Vedro
 Pravac vetra JI
Vetar: JI 22 km/h
Temperatura: 29°C
Heat Index: 28°C
Tačka rose: 14°C
Vlažnost: 40%
Pritisak: 1004 hPa
Pregled: Vedro
Vidljivost: greater than 10 km
2021/08/05 09:00 LYKV 050900Z 14012KT CAVOK 29/14 Q1004 NOSIG
LYNI - Niš, Srbija
Ažurirano: 05/08/2021 11:00
Vedro
Vedro
 Pravac vetra JJI
Vetar: JJI 19 km/h
Temperatura: 35°C
Tačka rose: 9°C
Vlažnost: 20%
Pritisak: 1007 hPa
Pregled: Vedro
Vidljivost: greater than 10 km
2021/08/05 09:00 LYNI 050900Z 15010KT 120V210 CAVOK 35/09 Q1007 NOSIG
BKPR - Priština, Srbija
Ažurirano: 05/08/2021 11:30
Vedro
Vedro
 Pravac vetra JJZ
Vetar: JJZ 19 km/h
Temperatura: 32°C
Heat Index: 33°C
Tačka rose: 18°C
Vlažnost: 43%
Pritisak: 1011 hPa
Pregled: Vedro
Vidljivost: greater than 10 km
2021/08/05 09:30 BKPR 050930Z 20010KT CAVOK 32/18 Q1011 NOSIG
 
LHPP - Pecs / Pogany, Hungary
Ažurirano: 05/08/2021 10:45
Vedro
Vedro
 Pravac vetra S
Vetar: S 9 km/h
Temperatura: 19°C
Tačka rose: 18°C
Vlažnost: 94%
Pritisak: 1004 hPa
Pregled: Vedro
Vidljivost: greater than 10 km
2021/08/05 08:45 LHPP 050845Z AUTO 36005KT 330V040 CAVOK 19/18 Q1004 RESHRA
LHUD - Szeged, Hungary
Ažurirano: 04/07/2019 01:45
NOT Current
Vedro
Vedro
 Pravac vetra S
Vetar: S 7 km/h
Temperatura: 18°C
Tačka rose: 13°C
Vlažnost: 73%
Pritisak: 1019 hPa
Pregled: Vedro
Vidljivost: greater than 10 km
2019/07/03 23:45 LHUD 032345Z 35004KT CAVOK 18/13 Q1019
LRTR - Timisoara, Romania
Ažurirano: 05/08/2021 11:00
Vedro
Vedro
 Pravac vetra J
Vetar: J 33 km/h
Temperatura: 32°C
Tačka rose: 11°C
Vlažnost: 27%
Pritisak: 1004 hPa
Pregled: Vedro
Vidljivost: greater than 10 km
2021/08/05 09:00 LRTR 050900Z 18018KT CAVOK 32/11 Q1004
 
LRCV - Craiova, Romania
Ažurirano: 05/08/2021 11:00
Vedro
Vedro
 Pravac vetra I
Vetar: I 20 km/h
Temperatura: 31°C
Tačka rose: 14°C
Vlažnost: 35%
Pritisak: 1009 hPa
Pregled: Vedro
Vidljivost: greater than 10 km
2021/08/05 09:00 LRCV 050900Z 09011KT CAVOK 31/14 Q1009
LBSF - Sofia, Bulgaria
Ažurirano: 05/08/2021 11:00
Vedro
Vedro
 Pravac vetra IJI
Vetar: IJI 9 km/h
Temperatura: 32°C
Heat Index: 33°C
Tačka rose: 17°C
Vlažnost: 41%
Pritisak: 1012 hPa
Pregled: Vedro
Vidljivost: greater than 10 km
2021/08/05 09:00 LBSF 050900Z 12005KT 060V160 CAVOK 32/17 Q1012 WS ALL RWY NOSIG
LWSK - Skoplje, Makedonija
Ažurirano: 05/08/2021 11:00
Vedro
Vedro
 Pravac vetra varies
Vetar: varies 2 km/h
Temperatura: 36°C
Tačka rose: 13°C
Vlažnost: 25%
Pritisak: 1009 hPa
Pregled: Vedro
Vidljivost: greater than 10 km
2021/08/05 09:00 LWSK 050900Z VRB01KT CAVOK 36/13 Q1009 NOSIG
 
LYPG - Podgorica, Crna Gora
Ažurirano: 05/08/2021 11:00
Mostly Cloudy
Mostly Cloudy
 Pravac vetra JJZ
Vetar: JJZ 17 km/h
Temperatura: 32°C
Tačka rose: 15°C
Vlažnost: 36%
Pritisak: 1009 hPa
Oblaci: Mostly Cloudy
Vidljivost: 10 km
Cloud details: Few Clouds 1219 m
Partly Cloudy 1524 m
Mostly Cloudy 2743 m
2021/08/05 09:00 LYPG 050900Z 20009KT 160V230 9999 FEW040 SCT050 BKN090 32/15 Q1009 NOSIG
LQSA - Sarajevo, Bosna i Hercegovina
Ažurirano: 05/08/2021 11:00
Thunderstorm rain, Pretežno oblačno
Thunderstorm rain, Pretežno oblačno
 Pravac vetra ZSZ
Vetar: ZSZ 26 km/h
Temperatura: 19°C
Tačka rose: 18°C
Vlažnost: 94%
Pritisak: 1009 hPa
Pregled: Thunderstorm Rain
Oblaci: Mostly Cloudy
Vidljivost: 6 km
Cloud details: Few Clouds 914 m
Mostly Cloudy 1372 m
2021/08/05 09:00 LQSA 050900Z 30014KT 6000 TSRA FEW030CB BKN045 19/18 Q1009 WS ALL RWY BECMG NSW
LDOS - Osijek, Hrvatksa
Ažurirano: 05/08/2021 11:00
Partly Cloudy
Partly Cloudy
 Pravac vetra J
Vetar: J 20 km/h
Temperatura: 19°C
Tačka rose: 17°C
Vlažnost: 88%
Pritisak: 1006 hPa
Oblaci: Partly Cloudy
Vidljivost: 10 km
Cloud details: Few Clouds 305 m
Partly Cloudy 914 m
2021/08/05 09:00 LDOS 050900Z 19011KT 9999 FEW010 SCT030 19/17 Q1006